createdAt,value
2023-04-09T00:01:27.184Z,67.53
2023-04-09T00:06:31.219Z,67.44
2023-04-09T00:11:35.675Z,67.58
2023-04-09T00:16:40.037Z,67.66
2023-04-09T00:21:43.718Z,67.81
2023-04-09T00:26:47.386Z,67.74
2023-04-09T00:31:50.963Z,67.86
2023-04-09T00:36:54.540Z,68.06
2023-04-09T00:41:58.889Z,68.13
2023-04-09T00:47:02.612Z,68.28
2023-04-09T00:52:07.360Z,68.33
2023-04-09T00:57:11.893Z,68.27
2023-04-09T01:02:15.730Z,68.40
2023-04-09T01:07:37.308Z,68.38
2023-04-09T01:12:48.105Z,68.44
2023-04-09T01:17:57.350Z,68.50
2023-04-09T01:23:11.168Z,68.49
2023-04-09T01:28:20.838Z,68.64
2023-04-09T01:33:26.937Z,68.72
2023-04-09T01:38:30.446Z,68.80
2023-04-09T01:43:36.752Z,68.87
2023-04-09T01:48:40.639Z,68.83
2023-04-09T01:53:44.200Z,68.95
2023-04-09T01:58:47.705Z,68.83
2023-04-09T02:03:56.661Z,69.00
2023-04-09T02:09:03.457Z,68.99
2023-04-09T02:14:08.290Z,69.22
2023-04-09T02:19:11.819Z,69.35
2023-04-09T02:24:15.366Z,69.41
2023-04-09T02:29:18.953Z,69.60
2023-04-09T02:34:22.508Z,69.54
2023-04-09T02:39:26.666Z,69.52
2023-04-09T02:44:30.240Z,69.66
2023-04-09T02:49:34.010Z,69.73
2023-04-09T02:54:37.587Z,69.86
2023-04-09T02:59:41.114Z,69.94
2023-04-09T03:04:44.835Z,70.14
2023-04-09T03:09:48.295Z,70.16
2023-04-09T03:14:51.805Z,70.21
2023-04-09T03:19:55.595Z,70.45
2023-04-09T03:24:59.234Z,70.55
2023-04-09T03:30:03.338Z,70.59
2023-04-09T03:35:13.655Z,70.40
2023-04-09T03:40:18.366Z,70.68
2023-04-09T03:45:22.021Z,70.87
2023-04-09T03:50:27.238Z,70.93
2023-04-09T03:55:32.110Z,71.06
2023-04-09T04:00:38.656Z,71.04
2023-04-09T04:06:04.527Z,71.01
2023-04-09T04:11:17.433Z,71.22
2023-04-09T04:16:22.080Z,71.33
2023-04-09T04:21:26.756Z,71.42
2023-04-09T04:26:36.981Z,71.42
2023-04-09T04:31:40.698Z,71.53
2023-04-09T04:36:44.369Z,71.52
2023-04-09T04:41:48.023Z,71.63
2023-04-09T04:46:56.688Z,71.79
2023-04-09T04:52:00.431Z,71.81
2023-04-09T04:57:04.712Z,71.82
2023-04-09T05:02:11.391Z,71.88
2023-04-09T05:07:46.463Z,71.94
2023-04-09T05:12:51.439Z,72.10
2023-04-09T05:18:04.241Z,72.25
2023-04-09T05:23:09.647Z,72.17
2023-04-09T05:28:17.437Z,72.10
2023-04-09T05:33:21.588Z,72.10
2023-04-09T05:38:25.511Z,72.32
2023-04-09T05:43:32.882Z,72.40
2023-04-09T05:48:36.844Z,72.37
2023-04-09T05:53:40.740Z,72.45
2023-04-09T05:58:44.470Z,72.45
2023-04-09T06:03:48.406Z,72.69
2023-04-09T06:08:52.134Z,72.66
2023-04-09T06:13:55.898Z,72.72
2023-04-09T06:18:59.675Z,72.75
2023-04-09T06:24:03.442Z,72.88
2023-04-09T06:29:07.298Z,72.87
2023-04-09T06:34:10.980Z,73.04
2023-04-09T06:39:14.498Z,73.06
2023-04-09T06:44:19.370Z,73.05
2023-04-09T06:49:22.922Z,72.94
2023-04-09T06:54:26.662Z,72.94
2023-04-09T06:59:30.376Z,73.14
2023-04-09T07:04:34.049Z,73.32
2023-04-09T07:09:37.729Z,73.42
2023-04-09T07:14:41.327Z,73.41
2023-04-09T07:19:45.050Z,73.45
2023-04-09T07:24:52.979Z,73.39
2023-04-09T07:29:57.833Z,73.53
2023-04-09T07:35:01.837Z,73.49
2023-04-09T07:40:07.908Z,73.44
2023-04-09T07:45:11.753Z,73.56
2023-04-09T07:50:15.720Z,73.78
2023-04-09T07:55:19.705Z,73.66
2023-04-09T08:00:23.640Z,73.33
2023-04-09T08:05:27.901Z,73.39
2023-04-09T08:10:31.471Z,73.54
2023-04-09T08:15:35.022Z,73.68
2023-04-09T08:20:44.231Z,73.53
2023-04-09T08:25:49.668Z,73.54
2023-04-09T08:30:53.855Z,73.46
2023-04-09T08:35:57.439Z,73.63
2023-04-09T08:41:00.926Z,73.69
2023-04-09T08:46:04.617Z,73.72
2023-04-09T08:51:08.674Z,73.57
2023-04-09T08:56:13.581Z,73.82
2023-04-09T09:01:20.911Z,73.83
2023-04-09T09:06:26.624Z,73.83
2023-04-09T09:11:30.523Z,73.76
2023-04-09T09:16:35.077Z,73.79
2023-04-09T09:21:41.264Z,73.78
2023-04-09T09:26:44.772Z,73.84
2023-04-09T09:31:49.496Z,73.85
2023-04-09T09:36:53.179Z,73.89
2023-04-09T09:42:08.800Z,73.83
2023-04-09T09:47:14.242Z,73.63
2023-04-09T09:52:24.576Z,73.55
2023-04-09T09:57:30.522Z,73.53
2023-04-09T10:02:43.528Z,73.60
2023-04-09T10:07:49.022Z,73.62
2023-04-09T10:12:52.784Z,73.29
2023-04-09T10:17:57.452Z,73.20
2023-04-09T10:23:09.495Z,73.06
2023-04-09T10:28:18.201Z,73.07
2023-04-09T10:33:26.314Z,72.86
2023-04-09T10:38:37.820Z,72.43
2023-04-09T10:43:41.637Z,72.37
2023-04-09T10:48:46.385Z,72.25
2023-04-09T10:53:53.697Z,72.06
2023-04-09T10:58:57.265Z,71.91
2023-04-09T11:04:20.561Z,71.89
2023-04-09T11:09:24.213Z,71.37
2023-04-09T11:14:27.882Z,71.26
2023-04-09T11:19:34.270Z,71.50
2023-04-09T11:24:46.030Z,71.57
2023-04-09T11:29:54.978Z,71.55
2023-04-09T11:34:58.625Z,71.15
2023-04-09T11:40:02.431Z,70.94
2023-04-09T11:45:08.387Z,70.91
2023-04-09T11:50:13.296Z,70.80
2023-04-09T11:55:25.409Z,70.58
2023-04-09T12:00:29.738Z,70.27
2023-04-09T12:05:35.053Z,70.21
2023-04-09T12:10:39.579Z,70.02
2023-04-09T12:15:43.347Z,69.75
2023-04-09T12:20:49.104Z,70.01
2023-04-09T12:25:54.813Z,69.99
2023-04-09T12:30:59.977Z,70.08
2023-04-09T12:36:03.705Z,69.68
2023-04-09T12:41:07.475Z,69.67
2023-04-09T12:46:11.326Z,69.74
2023-04-09T12:51:15.408Z,69.58
2023-04-09T12:56:19.176Z,69.27
2023-04-09T13:01:22.892Z,69.21
2023-04-09T13:06:26.855Z,69.17
2023-04-09T13:11:30.509Z,69.02
2023-04-09T13:16:34.234Z,68.81
2023-04-09T13:21:37.911Z,68.76
2023-04-09T13:26:41.833Z,68.78
2023-04-09T13:31:45.555Z,68.79
2023-04-09T13:36:49.238Z,68.77
2023-04-09T13:41:54.668Z,68.65
2023-04-09T13:46:58.341Z,68.41
2023-04-09T13:52:03.946Z,68.47
2023-04-09T13:57:07.572Z,68.54
2023-04-09T14:02:11.479Z,68.35
2023-04-09T14:07:15.154Z,68.29
2023-04-09T14:12:18.777Z,68.32
2023-04-09T14:17:22.465Z,68.16
2023-04-09T14:22:28.543Z,68.26
2023-04-09T14:27:32.646Z,68.23
2023-04-09T14:32:36.368Z,68.15
2023-04-09T14:37:40.536Z,67.96
2023-04-09T14:42:45.364Z,67.87
2023-04-09T14:47:49.078Z,67.92
2023-04-09T14:52:52.759Z,67.78
2023-04-09T14:57:56.343Z,67.68
2023-04-09T15:03:00.279Z,67.78
2023-04-09T15:08:05.077Z,67.67
2023-04-09T15:13:08.741Z,67.54
2023-04-09T15:18:12.285Z,67.74
2023-04-09T15:23:15.804Z,67.67
2023-04-09T15:28:19.537Z,67.68
2023-04-09T15:33:23.282Z,67.73
2023-04-09T15:38:26.942Z,67.61
2023-04-09T15:43:31.077Z,67.54
2023-04-09T15:48:34.790Z,67.48
2023-04-09T15:53:38.395Z,67.55
2023-04-09T15:58:42.768Z,67.55
2023-04-09T16:03:51.312Z,67.41
2023-04-09T16:08:55.217Z,67.41
2023-04-09T16:13:59.128Z,67.52
2023-04-09T16:19:02.698Z,67.54
2023-04-09T16:24:06.775Z,67.51
2023-04-09T16:29:10.598Z,67.64
2023-04-09T16:34:14.216Z,67.62
2023-04-09T16:39:19.302Z,67.57
2023-04-09T16:44:23.134Z,67.62
2023-04-09T16:49:26.911Z,67.61
2023-04-09T16:54:30.717Z,67.59
2023-04-09T16:59:34.291Z,67.77
2023-04-09T17:04:38.271Z,67.75
2023-04-09T17:09:42.230Z,67.79
2023-04-09T17:14:45.809Z,67.74
2023-04-09T17:19:49.491Z,67.73
2023-04-09T17:24:53.261Z,67.89
2023-04-09T17:29:57.017Z,67.80
2023-04-09T17:35:02.969Z,67.94
2023-04-09T17:40:11.784Z,67.97
2023-04-09T17:45:15.630Z,67.99
2023-04-09T17:50:19.646Z,68.04
2023-04-09T17:55:23.506Z,67.96
2023-04-09T18:00:27.468Z,68.33
2023-04-09T18:05:31.413Z,68.35
2023-04-09T18:10:35.625Z,68.50
2023-04-09T18:15:39.445Z,68.50
2023-04-09T18:20:43.138Z,68.40
2023-04-09T18:25:49.585Z,68.52
2023-04-09T18:30:53.735Z,68.65
2023-04-09T18:36:00.727Z,68.62
2023-04-09T18:41:04.933Z,68.79
2023-04-09T18:46:08.639Z,68.89
2023-04-09T18:51:12.361Z,69.16
2023-04-09T18:56:16.021Z,69.20
2023-04-09T19:01:19.710Z,69.21
2023-04-09T19:06:24.925Z,69.21
2023-04-09T19:11:28.599Z,69.44
2023-04-09T19:16:32.267Z,69.79
2023-04-09T19:21:36.113Z,69.89
2023-04-09T19:26:39.621Z,70.00
2023-04-09T19:31:43.428Z,70.10
2023-04-09T19:36:47.096Z,70.18
2023-04-09T19:41:50.788Z,70.24
2023-04-09T19:46:54.506Z,70.20
2023-04-09T19:51:58.071Z,70.30
2023-04-09T19:57:02.853Z,70.12
2023-04-09T20:02:06.963Z,70.24
2023-04-09T20:07:10.638Z,70.21
2023-04-09T20:12:14.297Z,70.13
2023-04-09T20:17:19.376Z,70.08
2023-04-09T20:22:23.418Z,70.12
2023-04-09T20:27:27.800Z,69.87
2023-04-09T20:32:31.815Z,69.92
2023-04-09T20:37:35.774Z,69.89
2023-04-09T20:42:41.728Z,69.72
2023-04-09T20:47:45.419Z,69.73
2023-04-09T20:52:49.478Z,69.89
2023-04-09T20:57:54.728Z,69.82
2023-04-09T21:02:59.297Z,69.79
2023-04-09T21:08:03.104Z,69.85
2023-04-09T21:13:06.901Z,69.98
2023-04-09T21:18:10.438Z,69.96
2023-04-09T21:23:14.345Z,69.63
2023-04-09T21:28:18.020Z,69.59
2023-04-09T21:33:21.694Z,69.49
2023-04-09T21:38:25.426Z,69.41
2023-04-09T21:43:29.646Z,69.28
2023-04-09T21:48:33.315Z,69.24
2023-04-09T21:53:36.881Z,69.20
2023-04-09T21:58:40.526Z,69.24
2023-04-09T22:03:44.234Z,69.30
2023-04-09T22:08:55.713Z,69.31
2023-04-09T22:14:00.204Z,69.19
2023-04-09T22:19:03.886Z,69.32
2023-04-09T22:24:07.648Z,69.30
2023-04-09T22:29:11.134Z,69.36
2023-04-09T22:34:21.525Z,69.52
2023-04-09T22:39:26.205Z,69.53
2023-04-09T22:44:29.962Z,69.41
2023-04-09T22:49:33.688Z,69.37
2023-04-09T22:54:37.929Z,69.51
2023-04-09T22:59:41.554Z,69.68
2023-04-09T23:04:45.164Z,69.74
2023-04-09T23:09:48.996Z,69.73
2023-04-09T23:14:53.279Z,69.70
2023-04-09T23:19:57.000Z,69.74
2023-04-09T23:25:00.532Z,69.69
2023-04-09T23:30:05.913Z,69.88
2023-04-09T23:35:11.036Z,69.90
2023-04-09T23:40:17.350Z,69.90
2023-04-09T23:45:23.084Z,69.78
2023-04-09T23:50:28.134Z,69.94
2023-04-09T23:55:32.804Z,69.93
